sensor_id;sensor_type;location;lat;lon;timestamp;P1;durP1;ratioP1;P2;durP2;ratioP2
33279;SDS011;20403;43.114;12.434;2022-08-20T00:00:13;8.15;;;2.92;;
33279;SDS011;20403;43.114;12.434;2022-08-20T00:02:46;13.05;;;2.80;;
33279;SDS011;20403;43.114;12.434;2022-08-20T00:05:30;7.70;;;2.40;;
33279;SDS011;20403;43.114;12.434;2022-08-20T00:08:00;8.35;;;2.53;;
33279;SDS011;20403;43.114;12.434;2022-08-20T00:10:28;16.98;;;3.65;;
33279;SDS011;20403;43.114;12.434;2022-08-20T00:12:55;16.33;;;3.13;;
33279;SDS011;20403;43.114;12.434;2022-08-20T00:15:23;13.77;;;3.10;;
33279;SDS011;20403;43.114;12.434;2022-08-20T00:17:52;14.80;;;3.78;;
33279;SDS011;20403;43.114;12.434;2022-08-20T00:20:20;13.57;;;2.83;;
33279;SDS011;20403;43.114;12.434;2022-08-20T00:22:47;14.57;;;2.88;;
33279;SDS011;20403;43.114;12.434;2022-08-20T00:25:13;11.60;;;2.88;;
33279;SDS011;20403;43.114;12.434;2022-08-20T00:27:39;16.48;;;3.53;;
33279;SDS011;20403;43.114;12.434;2022-08-20T00:30:05;11.27;;;3.17;;
33279;SDS011;20403;43.114;12.434;2022-08-20T00:32:47;11.30;;;2.97;;
33279;SDS011;20403;43.114;12.434;2022-08-20T00:35:15;16.85;;;2.92;;
33279;SDS011;20403;43.114;12.434;2022-08-20T00:37:42;21.15;;;2.90;;
33279;SDS011;20403;43.114;12.434;2022-08-20T00:40:09;13.63;;;2.95;;
33279;SDS011;20403;43.114;12.434;2022-08-20T00:42:40;7.28;;;3.05;;
33279;SDS011;20403;43.114;12.434;2022-08-20T00:45:10;24.77;;;3.25;;
33279;SDS011;20403;43.114;12.434;2022-08-20T00:47:36;11.68;;;2.47;;
33279;SDS011;20403;43.114;12.434;2022-08-20T00:50:05;16.83;;;3.50;;
33279;SDS011;20403;43.114;12.434;2022-08-20T00:52:31;10.38;;;3.15;;
33279;SDS011;20403;43.114;12.434;2022-08-20T00:54:57;21.67;;;3.15;;
33279;SDS011;20403;43.114;12.434;2022-08-20T00:57:25;11.93;;;3.20;;
33279;SDS011;20403;43.114;12.434;2022-08-20T00:59:55;12.30;;;2.50;;
33279;SDS011;20403;43.114;12.434;2022-08-20T01:02:23;22.02;;;4.05;;
33279;SDS011;20403;43.114;12.434;2022-08-20T01:04:51;14.35;;;3.45;;
33279;SDS011;20403;43.114;12.434;2022-08-20T01:07:21;9.57;;;3.30;;
33279;SDS011;20403;43.114;12.434;2022-08-20T01:10:03;10.75;;;2.95;;
33279;SDS011;20403;43.114;12.434;2022-08-20T01:12:37;15.85;;;2.92;;
33279;SDS011;20403;43.114;12.434;2022-08-20T01:15:05;15.57;;;3.03;;
33279;SDS011;20403;43.114;12.434;2022-08-20T01:17:33;16.20;;;3.20;;
33279;SDS011;20403;43.114;12.434;2022-08-20T01:20:05;12.95;;;3.28;;
33279;SDS011;20403;43.114;12.434;2022-08-20T01:25:44;17.40;;;2.65;;
33279;SDS011;20403;43.114;12.434;2022-08-20T01:28:26;12.63;;;3.63;;
33279;SDS011;20403;43.114;12.434;2022-08-20T01:30:58;15.45;;;2.72;;
33279;SDS011;20403;43.114;12.434;2022-08-20T01:33:24;16.23;;;3.47;;
33279;SDS011;20403;43.114;12.434;2022-08-20T01:35:50;14.73;;;3.13;;
33279;SDS011;20403;43.114;12.434;2022-08-20T01:38:17;9.35;;;3.17;;
33279;SDS011;20403;43.114;12.434;2022-08-20T01:40:47;30.35;;;5.05;;
33279;SDS011;20403;43.114;12.434;2022-08-20T01:43:14;27.05;;;3.95;;
33279;SDS011;20403;43.114;12.434;2022-08-20T01:45:40;17.17;;;4.20;;
33279;SDS011;20403;43.114;12.434;2022-08-20T01:48:06;8.32;;;3.83;;
33279;SDS011;20403;43.114;12.434;2022-08-20T01:50:32;15.88;;;3.65;;
33279;SDS011;20403;43.114;12.434;2022-08-20T01:53:09;21.42;;;4.13;;
33279;SDS011;20403;43.114;12.434;2022-08-20T01:55:42;16.65;;;3.47;;
33279;SDS011;20403;43.114;12.434;2022-08-20T01:58:08;18.23;;;4.10;;
33279;SDS011;20403;43.114;12.434;2022-08-20T02:00:34;17.80;;;3.30;;
33279;SDS011;20403;43.114;12.434;2022-08-20T02:03:00;24.67;;;3.28;;
33279;SDS011;20403;43.114;12.434;2022-08-20T02:05:27;25.13;;;3.60;;
33279;SDS011;20403;43.114;12.434;2022-08-20T02:07:53;16.30;;;4.00;;
33279;SDS011;20403;43.114;12.434;2022-08-20T02:10:19;22.48;;;3.50;;
33279;SDS011;20403;43.114;12.434;2022-08-20T02:12:47;14.20;;;3.78;;
33279;SDS011;20403;43.114;12.434;2022-08-20T02:15:12;14.50;;;3.30;;
33279;SDS011;20403;43.114;12.434;2022-08-20T02:17:38;18.55;;;3.80;;
33279;SDS011;20403;43.114;12.434;2022-08-20T02:20:07;10.88;;;4.25;;
33279;SDS011;20403;43.114;12.434;2022-08-20T02:22:51;16.70;;;4.20;;
33279;SDS011;20403;43.114;12.434;2022-08-20T02:25:20;18.13;;;4.13;;
33279;SDS011;20403;43.114;12.434;2022-08-20T02:27:47;15.85;;;6.20;;
33279;SDS011;20403;43.114;12.434;2022-08-20T02:30:16;10.10;;;6.07;;
33279;SDS011;20403;43.114;12.434;2022-08-20T02:32:44;14.77;;;7.60;;
33279;SDS011;20403;43.114;12.434;2022-08-20T02:35:10;12.50;;;7.68;;
33279;SDS011;20403;43.114;12.434;2022-08-20T02:37:37;13.75;;;7.32;;
33279;SDS011;20403;43.114;12.434;2022-08-20T02:40:05;18.27;;;7.65;;
33279;SDS011;20403;43.114;12.434;2022-08-20T02:42:32;10.02;;;7.00;;
33279;SDS011;20403;43.114;12.434;2022-08-20T02:44:58;14.25;;;7.60;;
33279;SDS011;20403;43.114;12.434;2022-08-20T02:47:24;19.63;;;7.75;;
33279;SDS011;20403;43.114;12.434;2022-08-20T02:49:51;17.98;;;8.38;;
33279;SDS011;20403;43.114;12.434;2022-08-20T02:52:18;20.52;;;7.75;;
33279;SDS011;20403;43.114;12.434;2022-08-20T02:54:44;11.02;;;6.60;;
33279;SDS011;20403;43.114;12.434;2022-08-20T02:57:14;22.08;;;6.95;;
33279;SDS011;20403;43.114;12.434;2022-08-20T02:59:44;17.20;;;8.27;;
33279;SDS011;20403;43.114;12.434;2022-08-20T03:02:09;13.55;;;7.70;;
33279;SDS011;20403;43.114;12.434;2022-08-20T03:04:36;10.55;;;7.38;;
33279;SDS011;20403;43.114;12.434;2022-08-20T03:07:02;12.63;;;7.53;;
33279;SDS011;20403;43.114;12.434;2022-08-20T03:09:29;11.77;;;7.82;;
33279;SDS011;20403;43.114;12.434;2022-08-20T03:11:54;12.80;;;7.53;;
33279;SDS011;20403;43.114;12.434;2022-08-20T03:14:20;11.05;;;7.07;;
33279;SDS011;20403;43.114;12.434;2022-08-20T03:16:45;11.63;;;7.70;;
33279;SDS011;20403;43.114;12.434;2022-08-20T03:19:11;11.48;;;8.95;;
33279;SDS011;20403;43.114;12.434;2022-08-20T03:21:37;12.95;;;9.00;;
33279;SDS011;20403;43.114;12.434;2022-08-20T03:24:03;15.85;;;9.02;;
33279;SDS011;20403;43.114;12.434;2022-08-20T03:26:29;13.30;;;9.05;;
33279;SDS011;20403;43.114;12.434;2022-08-20T03:28:54;13.68;;;9.50;;
33279;SDS011;20403;43.114;12.434;2022-08-20T03:31:20;9.10;;;8.02;;
33279;SDS011;20403;43.114;12.434;2022-08-20T03:33:45;9.88;;;8.88;;
33279;SDS011;20403;43.114;12.434;2022-08-20T03:36:11;16.73;;;9.68;;
33279;SDS011;20403;43.114;12.434;2022-08-20T03:38:36;11.70;;;8.48;;
33279;SDS011;20403;43.114;12.434;2022-08-20T03:41:02;17.13;;;9.73;;
33279;SDS011;20403;43.114;12.434;2022-08-20T03:43:28;16.60;;;10.27;;
33279;SDS011;20403;43.114;12.434;2022-08-20T03:45:54;14.85;;;10.25;;
33279;SDS011;20403;43.114;12.434;2022-08-20T03:48:19;18.25;;;10.25;;
33279;SDS011;20403;43.114;12.434;2022-08-20T03:50:46;14.02;;;10.57;;
33279;SDS011;20403;43.114;12.434;2022-08-20T03:53:13;14.77;;;10.57;;
33279;SDS011;20403;43.114;12.434;2022-08-20T03:55:40;19.25;;;11.27;;
33279;SDS011;20403;43.114;12.434;2022-08-20T03:58:08;16.70;;;10.73;;
33279;SDS011;20403;43.114;12.434;2022-08-20T04:00:39;16.98;;;11.38;;
33279;SDS011;20403;43.114;12.434;2022-08-20T04:03:07;24.90;;;11.80;;
33279;SDS011;20403;43.114;12.434;2022-08-20T04:05:34;17.52;;;12.27;;
33279;SDS011;20403;43.114;12.434;2022-08-20T04:08:04;18.23;;;9.70;;
33279;SDS011;20403;43.114;12.434;2022-08-20T04:10:32;18.83;;;10.95;;
33279;SDS011;20403;43.114;12.434;2022-08-20T04:12:58;12.57;;;9.90;;
33279;SDS011;20403;43.114;12.434;2022-08-20T04:15:24;20.42;;;11.07;;
33279;SDS011;20403;43.114;12.434;2022-08-20T04:17:49;15.38;;;11.02;;
33279;SDS011;20403;43.114;12.434;2022-08-20T04:20:18;14.85;;;10.27;;
33279;SDS011;20403;43.114;12.434;2022-08-20T04:22:51;13.52;;;9.57;;
33279;SDS011;20403;43.114;12.434;2022-08-20T04:25:18;13.48;;;10.18;;
33279;SDS011;20403;43.114;12.434;2022-08-20T04:27:46;18.80;;;11.68;;
33279;SDS011;20403;43.114;12.434;2022-08-20T04:30:14;22.48;;;11.40;;
33279;SDS011;20403;43.114;12.434;2022-08-20T04:32:41;13.70;;;10.30;;
33279;SDS011;20403;43.114;12.434;2022-08-20T04:35:09;17.70;;;13.35;;
33279;SDS011;20403;43.114;12.434;2022-08-20T04:37:39;15.68;;;11.18;;
33279;SDS011;20403;43.114;12.434;2022-08-20T04:40:12;18.38;;;11.20;;
33279;SDS011;20403;43.114;12.434;2022-08-20T04:43:00;15.52;;;11.07;;
33279;SDS011;20403;43.114;12.434;2022-08-20T04:45:28;18.63;;;13.35;;
33279;SDS011;20403;43.114;12.434;2022-08-20T04:47:55;20.20;;;13.43;;
33279;SDS011;20403;43.114;12.434;2022-08-20T04:50:20;24.13;;;11.52;;
33279;SDS011;20403;43.114;12.434;2022-08-20T04:52:46;20.65;;;12.05;;
33279;SDS011;20403;43.114;12.434;2022-08-20T04:55:13;16.52;;;10.50;;
33279;SDS011;20403;43.114;12.434;2022-08-20T04:57:40;21.63;;;13.23;;
33279;SDS011;20403;43.114;12.434;2022-08-20T05:00:08;21.63;;;12.55;;
33279;SDS011;20403;43.114;12.434;2022-08-20T05:05:04;25.15;;;12.48;;
33279;SDS011;20403;43.114;12.434;2022-08-20T05:07:36;18.63;;;11.45;;
33279;SDS011;20403;43.114;12.434;2022-08-20T05:10:04;15.23;;;10.43;;
33279;SDS011;20403;43.114;12.434;2022-08-20T05:12:30;15.43;;;10.45;;
33279;SDS011;20403;43.114;12.434;2022-08-20T05:14:56;15.35;;;9.90;;
33279;SDS011;20403;43.114;12.434;2022-08-20T05:17:22;21.75;;;10.82;;
33279;SDS011;20403;43.114;12.434;2022-08-20T05:19:47;18.67;;;10.43;;
33279;SDS011;20403;43.114;12.434;2022-08-20T05:22:13;16.67;;;10.50;;
33279;SDS011;20403;43.114;12.434;2022-08-20T05:24:38;14.90;;;10.43;;
33279;SDS011;20403;43.114;12.434;2022-08-20T05:27:04;24.83;;;12.77;;
33279;SDS011;20403;43.114;12.434;2022-08-20T05:29:29;17.38;;;12.60;;
33279;SDS011;20403;43.114;12.434;2022-08-20T05:31:55;16.08;;;11.75;;
33279;SDS011;20403;43.114;12.434;2022-08-20T05:34:20;28.15;;;14.15;;
33279;SDS011;20403;43.114;12.434;2022-08-20T05:36:47;17.70;;;11.30;;
33279;SDS011;20403;43.114;12.434;2022-08-20T05:39:14;22.90;;;12.02;;
33279;SDS011;20403;43.114;12.434;2022-08-20T05:41:42;23.65;;;11.68;;
33279;SDS011;20403;43.114;12.434;2022-08-20T05:44:08;26.25;;;11.70;;
33279;SDS011;20403;43.114;12.434;2022-08-20T05:46:37;19.27;;;12.18;;
33279;SDS011;20403;43.114;12.434;2022-08-20T05:49:05;26.08;;;13.57;;
33279;SDS011;20403;43.114;12.434;2022-08-20T05:51:32;22.88;;;13.05;;
33279;SDS011;20403;43.114;12.434;2022-08-20T05:53:57;32.33;;;12.23;;
33279;SDS011;20403;43.114;12.434;2022-08-20T05:56:23;24.63;;;16.38;;
33279;SDS011;20403;43.114;12.434;2022-08-20T05:58:48;23.63;;;14.00;;
33279;SDS011;20403;43.114;12.434;2022-08-20T06:01:14;33.45;;;14.68;;
33279;SDS011;20403;43.114;12.434;2022-08-20T06:03:39;20.38;;;12.02;;
33279;SDS011;20403;43.114;12.434;2022-08-20T06:06:23;20.95;;;12.57;;
33279;SDS011;20403;43.114;12.434;2022-08-20T06:08:48;30.80;;;12.55;;
33279;SDS011;20403;43.114;12.434;2022-08-20T06:11:14;26.80;;;14.25;;
33279;SDS011;20403;43.114;12.434;2022-08-20T06:13:39;25.58;;;16.17;;
33279;SDS011;20403;43.114;12.434;2022-08-20T06:16:04;20.55;;;14.43;;
33279;SDS011;20403;43.114;12.434;2022-08-20T06:18:30;22.30;;;13.13;;
33279;SDS011;20403;43.114;12.434;2022-08-20T06:20:55;22.92;;;11.77;;
33279;SDS011;20403;43.114;12.434;2022-08-20T06:23:21;18.33;;;11.80;;
33279;SDS011;20403;43.114;12.434;2022-08-20T06:25:49;17.83;;;10.15;;
33279;SDS011;20403;43.114;12.434;2022-08-20T06:28:15;28.65;;;10.20;;
33279;SDS011;20403;43.114;12.434;2022-08-20T06:30:41;12.77;;;7.75;;
33279;SDS011;20403;43.114;12.434;2022-08-20T06:33:06;14.15;;;8.93;;
33279;SDS011;20403;43.114;12.434;2022-08-20T06:35:31;12.05;;;6.68;;
33279;SDS011;20403;43.114;12.434;2022-08-20T06:37:58;10.00;;;6.72;;
33279;SDS011;20403;43.114;12.434;2022-08-20T06:40:25;14.60;;;6.22;;
33279;SDS011;20403;43.114;12.434;2022-08-20T06:42:52;12.40;;;7.10;;
33279;SDS011;20403;43.114;12.434;2022-08-20T06:45:23;13.25;;;7.03;;
33279;SDS011;20403;43.114;12.434;2022-08-20T06:47:51;9.38;;;5.68;;
33279;SDS011;20403;43.114;12.434;2022-08-20T06:50:21;10.05;;;5.28;;
33279;SDS011;20403;43.114;12.434;2022-08-20T06:52:48;6.07;;;4.75;;
33279;SDS011;20403;43.114;12.434;2022-08-20T06:55:14;6.05;;;3.78;;
33279;SDS011;20403;43.114;12.434;2022-08-20T06:57:41;5.22;;;4.03;;
33279;SDS011;20403;43.114;12.434;2022-08-20T07:00:11;17.63;;;4.93;;
33279;SDS011;20403;43.114;12.434;2022-08-20T07:02:39;13.43;;;4.32;;
33279;SDS011;20403;43.114;12.434;2022-08-20T07:05:05;8.05;;;3.97;;
33279;SDS011;20403;43.114;12.434;2022-08-20T07:07:32;6.18;;;4.13;;
33279;SDS011;20403;43.114;12.434;2022-08-20T07:10:08;8.32;;;3.60;;
33279;SDS011;20403;43.114;12.434;2022-08-20T07:12:36;5.20;;;3.17;;
33279;SDS011;20403;43.114;12.434;2022-08-20T07:15:05;8.63;;;3.50;;
33279;SDS011;20403;43.114;12.434;2022-08-20T07:17:33;5.35;;;3.20;;
33279;SDS011;20403;43.114;12.434;2022-08-20T07:20:02;10.57;;;3.20;;
33279;SDS011;20403;43.114;12.434;2022-08-20T07:22:32;5.75;;;2.67;;
33279;SDS011;20403;43.114;12.434;2022-08-20T07:25:00;12.13;;;3.13;;
33279;SDS011;20403;43.114;12.434;2022-08-20T07:27:28;11.50;;;3.33;;
33279;SDS011;20403;43.114;12.434;2022-08-20T07:29:53;13.43;;;3.72;;
33279;SDS011;20403;43.114;12.434;2022-08-20T07:32:38;5.07;;;2.95;;
33279;SDS011;20403;43.114;12.434;2022-08-20T07:35:04;4.95;;;2.30;;
33279;SDS011;20403;43.114;12.434;2022-08-20T07:37:38;9.05;;;2.78;;
33279;SDS011;20403;43.114;12.434;2022-08-20T07:40:06;4.00;;;2.40;;
33279;SDS011;20403;43.114;12.434;2022-08-20T07:42:36;10.90;;;2.55;;
33279;SDS011;20403;43.114;12.434;2022-08-20T07:45:08;7.10;;;2.92;;
33279;SDS011;20403;43.114;12.434;2022-08-20T07:47:35;8.07;;;2.30;;
33279;SDS011;20403;43.114;12.434;2022-08-20T07:50:03;5.75;;;2.35;;
33279;SDS011;20403;43.114;12.434;2022-08-20T07:52:30;5.60;;;2.53;;
33279;SDS011;20403;43.114;12.434;2022-08-20T07:54:55;6.82;;;2.15;;
33279;SDS011;20403;43.114;12.434;2022-08-20T07:57:21;9.02;;;2.75;;
33279;SDS011;20403;43.114;12.434;2022-08-20T07:59:47;5.28;;;2.22;;
33279;SDS011;20403;43.114;12.434;2022-08-20T08:02:13;5.63;;;2.08;;
33279;SDS011;20403;43.114;12.434;2022-08-20T08:04:38;8.15;;;2.20;;
33279;SDS011;20403;43.114;12.434;2022-08-20T08:07:04;4.35;;;2.08;;
33279;SDS011;20403;43.114;12.434;2022-08-20T08:09:31;4.53;;;2.03;;
33279;SDS011;20403;43.114;12.434;2022-08-20T08:11:58;6.50;;;2.28;;
33279;SDS011;20403;43.114;12.434;2022-08-20T08:14:27;9.15;;;2.40;;
33279;SDS011;20403;43.114;12.434;2022-08-20T08:16:56;8.35;;;2.35;;
33279;SDS011;20403;43.114;12.434;2022-08-20T08:19:24;8.57;;;3.40;;
33279;SDS011;20403;43.114;12.434;2022-08-20T08:21:52;5.30;;;2.13;;
33279;SDS011;20403;43.114;12.434;2022-08-20T08:24:18;4.45;;;2.33;;
33279;SDS011;20403;43.114;12.434;2022-08-20T08:26:43;6.97;;;2.20;;
33279;SDS011;20403;43.114;12.434;2022-08-20T08:29:09;4.43;;;2.10;;
33279;SDS011;20403;43.114;12.434;2022-08-20T08:31:36;9.07;;;2.35;;
33279;SDS011;20403;43.114;12.434;2022-08-20T08:34:01;4.88;;;2.47;;
33279;SDS011;20403;43.114;12.434;2022-08-20T08:36:27;8.20;;;2.08;;
33279;SDS011;20403;43.114;12.434;2022-08-20T08:38:53;4.85;;;1.80;;
33279;SDS011;20403;43.114;12.434;2022-08-20T08:41:38;4.78;;;1.92;;
33279;SDS011;20403;43.114;12.434;2022-08-20T08:44:13;6.18;;;2.15;;
33279;SDS011;20403;43.114;12.434;2022-08-20T08:46:48;6.80;;;1.63;;
33279;SDS011;20403;43.114;12.434;2022-08-20T08:49:21;9.02;;;2.20;;
33279;SDS011;20403;43.114;12.434;2022-08-20T08:51:53;4.00;;;1.77;;
33279;SDS011;20403;43.114;12.434;2022-08-20T08:54:24;4.45;;;1.70;;
33279;SDS011;20403;43.114;12.434;2022-08-20T08:56:52;4.00;;;1.48;;
33279;SDS011;20403;43.114;12.434;2022-08-20T08:59:19;12.10;;;2.25;;
33279;SDS011;20403;43.114;12.434;2022-08-20T09:01:47;6.00;;;1.73;;
33279;SDS011;20403;43.114;12.434;2022-08-20T09:04:16;4.13;;;1.65;;
33279;SDS011;20403;43.114;12.434;2022-08-20T09:06:46;5.68;;;1.50;;
33279;SDS011;20403;43.114;12.434;2022-08-20T09:09:23;7.10;;;1.77;;
33279;SDS011;20403;43.114;12.434;2022-08-20T09:11:54;5.15;;;1.60;;
33279;SDS011;20403;43.114;12.434;2022-08-20T09:14:21;8.43;;;1.92;;
33279;SDS011;20403;43.114;12.434;2022-08-20T09:16:49;11.48;;;2.05;;
33279;SDS011;20403;43.114;12.434;2022-08-20T09:19:15;7.78;;;1.77;;
33279;SDS011;20403;43.114;12.434;2022-08-20T09:21:40;4.40;;;1.60;;
33279;SDS011;20403;43.114;12.434;2022-08-20T09:24:08;2.67;;;1.45;;
33279;SDS011;20403;43.114;12.434;2022-08-20T09:26:33;2.70;;;1.50;;
33279;SDS011;20403;43.114;12.434;2022-08-20T09:28:59;3.33;;;1.85;;
33279;SDS011;20403;43.114;12.434;2022-08-20T09:31:24;13.85;;;2.47;;
33279;SDS011;20403;43.114;12.434;2022-08-20T09:33:50;6.68;;;1.50;;
33279;SDS011;20403;43.114;12.434;2022-08-20T09:36:16;8.70;;;1.65;;
33279;SDS011;20403;43.114;12.434;2022-08-20T09:38:41;14.80;;;2.10;;
33279;SDS011;20403;43.114;12.434;2022-08-20T09:41:06;2.83;;;1.45;;
33279;SDS011;20403;43.114;12.434;2022-08-20T09:43:32;4.68;;;1.33;;
33279;SDS011;20403;43.114;12.434;2022-08-20T09:45:57;10.02;;;2.00;;
33279;SDS011;20403;43.114;12.434;2022-08-20T09:48:23;5.10;;;1.60;;
33279;SDS011;20403;43.114;12.434;2022-08-20T09:50:48;5.18;;;1.50;;
33279;SDS011;20403;43.114;12.434;2022-08-20T09:53:15;7.32;;;1.80;;
33279;SDS011;20403;43.114;12.434;2022-08-20T09:55:45;4.10;;;1.92;;
33279;SDS011;20403;43.114;12.434;2022-08-20T09:58:19;8.45;;;1.90;;
33279;SDS011;20403;43.114;12.434;2022-08-20T10:00:51;6.15;;;1.67;;
33279;SDS011;20403;43.114;12.434;2022-08-20T10:03:17;11.90;;;1.80;;
33279;SDS011;20403;43.114;12.434;2022-08-20T10:05:43;3.40;;;1.63;;
33279;SDS011;20403;43.114;12.434;2022-08-20T10:08:09;6.38;;;2.42;;
33279;SDS011;20403;43.114;12.434;2022-08-20T10:10:36;4.63;;;1.55;;
33279;SDS011;20403;43.114;12.434;2022-08-20T10:13:02;3.45;;;1.90;;
33279;SDS011;20403;43.114;12.434;2022-08-20T10:15:28;6.55;;;1.90;;
33279;SDS011;20403;43.114;12.434;2022-08-20T10:17:54;6.22;;;2.15;;
33279;SDS011;20403;43.114;12.434;2022-08-20T10:20:21;11.98;;;1.60;;
33279;SDS011;20403;43.114;12.434;2022-08-20T10:22:47;4.53;;;1.58;;
33279;SDS011;20403;43.114;12.434;2022-08-20T10:25:12;5.35;;;1.92;;
33279;SDS011;20403;43.114;12.434;2022-08-20T10:27:38;3.88;;;1.95;;
33279;SDS011;20403;43.114;12.434;2022-08-20T10:30:04;2.35;;;1.40;;
33279;SDS011;20403;43.114;12.434;2022-08-20T10:32:30;4.43;;;1.75;;
33279;SDS011;20403;43.114;12.434;2022-08-20T10:34:56;5.63;;;1.42;;
33279;SDS011;20403;43.114;12.434;2022-08-20T10:37:22;5.88;;;1.80;;
33279;SDS011;20403;43.114;12.434;2022-08-20T10:39:51;2.88;;;1.70;;
33279;SDS011;20403;43.114;12.434;2022-08-20T10:42:17;4.10;;;1.63;;
33279;SDS011;20403;43.114;12.434;2022-08-20T10:44:43;4.05;;;1.75;;
33279;SDS011;20403;43.114;12.434;2022-08-20T10:47:14;7.05;;;1.80;;
33279;SDS011;20403;43.114;12.434;2022-08-20T10:49:51;7.25;;;1.90;;
33279;SDS011;20403;43.114;12.434;2022-08-20T10:52:18;6.05;;;1.70;;
33279;SDS011;20403;43.114;12.434;2022-08-20T10:54:45;2.63;;;1.50;;
33279;SDS011;20403;43.114;12.434;2022-08-20T10:57:15;6.57;;;1.70;;
33279;SDS011;20403;43.114;12.434;2022-08-20T10:59:46;4.90;;;1.50;;
33279;SDS011;20403;43.114;12.434;2022-08-20T11:02:12;5.15;;;1.70;;
33279;SDS011;20403;43.114;12.434;2022-08-20T11:04:38;5.15;;;1.77;;
33279;SDS011;20403;43.114;12.434;2022-08-20T11:07:17;5.63;;;1.80;;
33279;SDS011;20403;43.114;12.434;2022-08-20T11:09:50;6.53;;;1.60;;
33279;SDS011;20403;43.114;12.434;2022-08-20T11:12:17;3.40;;;1.60;;
33279;SDS011;20403;43.114;12.434;2022-08-20T11:14:43;4.35;;;1.80;;
33279;SDS011;20403;43.114;12.434;2022-08-20T11:17:09;7.43;;;2.72;;
33279;SDS011;20403;43.114;12.434;2022-08-20T11:19:42;6.68;;;2.00;;
33279;SDS011;20403;43.114;12.434;2022-08-20T11:22:08;4.97;;;1.73;;
33279;SDS011;20403;43.114;12.434;2022-08-20T11:24:34;7.72;;;2.00;;
33279;SDS011;20403;43.114;12.434;2022-08-20T11:27:00;7.53;;;2.05;;
33279;SDS011;20403;43.114;12.434;2022-08-20T11:29:26;6.25;;;1.95;;
33279;SDS011;20403;43.114;12.434;2022-08-20T11:31:51;4.65;;;1.67;;
33279;SDS011;20403;43.114;12.434;2022-08-20T11:34:17;3.13;;;1.45;;
33279;SDS011;20403;43.114;12.434;2022-08-20T11:36:43;8.27;;;2.00;;
33279;SDS011;20403;43.114;12.434;2022-08-20T11:39:10;6.25;;;1.52;;
33279;SDS011;20403;43.114;12.434;2022-08-20T11:41:36;6.15;;;1.67;;
33279;SDS011;20403;43.114;12.434;2022-08-20T11:44:01;6.63;;;2.08;;
33279;SDS011;20403;43.114;12.434;2022-08-20T11:46:27;6.85;;;1.77;;
33279;SDS011;20403;43.114;12.434;2022-08-20T11:48:52;8.07;;;2.25;;
33279;SDS011;20403;43.114;12.434;2022-08-20T11:51:18;5.78;;;1.80;;
33279;SDS011;20403;43.114;12.434;2022-08-20T11:53:43;8.70;;;2.00;;
33279;SDS011;20403;43.114;12.434;2022-08-20T11:56:08;3.28;;;2.00;;
33279;SDS011;20403;43.114;12.434;2022-08-20T11:58:36;4.90;;;1.60;;
33279;SDS011;20403;43.114;12.434;2022-08-20T12:01:01;5.78;;;1.35;;
33279;SDS011;20403;43.114;12.434;2022-08-20T12:03:26;4.80;;;1.30;;
33279;SDS011;20403;43.114;12.434;2022-08-20T12:05:52;5.05;;;1.42;;
33279;SDS011;20403;43.114;12.434;2022-08-20T12:08:17;4.18;;;1.50;;
33279;SDS011;20403;43.114;12.434;2022-08-20T12:10:43;7.95;;;1.60;;
33279;SDS011;20403;43.114;12.434;2022-08-20T12:13:08;4.45;;;1.42;;
33279;SDS011;20403;43.114;12.434;2022-08-20T12:15:34;11.63;;;2.08;;
33279;SDS011;20403;43.114;12.434;2022-08-20T12:18:00;4.15;;;1.60;;
33279;SDS011;20403;43.114;12.434;2022-08-20T12:20:29;4.97;;;1.60;;
33279;SDS011;20403;43.114;12.434;2022-08-20T12:22:55;6.32;;;1.77;;
33279;SDS011;20403;43.114;12.434;2022-08-20T12:25:21;7.18;;;1.40;;
33279;SDS011;20403;43.114;12.434;2022-08-20T12:27:47;4.85;;;1.75;;
33279;SDS011;20403;43.114;12.434;2022-08-20T12:30:14;3.78;;;1.20;;
33279;SDS011;20403;43.114;12.434;2022-08-20T12:32:41;7.55;;;1.77;;
33279;SDS011;20403;43.114;12.434;2022-08-20T12:35:07;3.83;;;1.30;;
33279;SDS011;20403;43.114;12.434;2022-08-20T12:37:34;5.18;;;1.63;;
33279;SDS011;20403;43.114;12.434;2022-08-20T12:40:02;5.82;;;1.65;;
33279;SDS011;20403;43.114;12.434;2022-08-20T12:42:30;5.68;;;1.40;;
33279;SDS011;20403;43.114;12.434;2022-08-20T12:44:56;3.88;;;1.35;;
33279;SDS011;20403;43.114;12.434;2022-08-20T12:47:25;5.55;;;1.33;;
33279;SDS011;20403;43.114;12.434;2022-08-20T12:49:57;9.13;;;2.03;;
33279;SDS011;20403;43.114;12.434;2022-08-20T12:52:25;5.00;;;1.35;;
33279;SDS011;20403;43.114;12.434;2022-08-20T12:54:52;5.80;;;1.60;;
33279;SDS011;20403;43.114;12.434;2022-08-20T12:57:25;4.80;;;1.48;;
33279;SDS011;20403;43.114;12.434;2022-08-20T12:59:54;12.40;;;2.30;;
33279;SDS011;20403;43.114;12.434;2022-08-20T13:02:20;3.90;;;1.17;;
33279;SDS011;20403;43.114;12.434;2022-08-20T13:04:46;6.03;;;1.33;;
33279;SDS011;20403;43.114;12.434;2022-08-20T13:07:11;7.20;;;1.58;;
33279;SDS011;20403;43.114;12.434;2022-08-20T13:09:37;4.65;;;1.08;;
33279;SDS011;20403;43.114;12.434;2022-08-20T13:12:03;5.38;;;1.40;;
33279;SDS011;20403;43.114;12.434;2022-08-20T13:14:28;5.50;;;1.30;;
33279;SDS011;20403;43.114;12.434;2022-08-20T13:16:55;3.40;;;1.20;;
33279;SDS011;20403;43.114;12.434;2022-08-20T13:19:25;10.90;;;1.30;;
33279;SDS011;20403;43.114;12.434;2022-08-20T13:21:52;6.82;;;1.42;;
33279;SDS011;20403;43.114;12.434;2022-08-20T13:24:18;8.27;;;1.70;;
33279;SDS011;20403;43.114;12.434;2022-08-20T13:26:44;7.97;;;1.50;;
33279;SDS011;20403;43.114;12.434;2022-08-20T13:29:10;6.22;;;1.75;;
33279;SDS011;20403;43.114;12.434;2022-08-20T13:31:37;11.82;;;2.10;;
33279;SDS011;20403;43.114;12.434;2022-08-20T13:34:02;6.95;;;1.38;;
33279;SDS011;20403;43.114;12.434;2022-08-20T13:36:27;3.30;;;1.20;;
33279;SDS011;20403;43.114;12.434;2022-08-20T13:38:53;4.95;;;1.20;;
33279;SDS011;20403;43.114;12.434;2022-08-20T13:41:18;8.65;;;1.58;;
33279;SDS011;20403;43.114;12.434;2022-08-20T13:43:44;3.35;;;1.00;;
33279;SDS011;20403;43.114;12.434;2022-08-20T13:46:09;5.25;;;1.30;;
33279;SDS011;20403;43.114;12.434;2022-08-20T13:48:35;7.10;;;1.23;;
33279;SDS011;20403;43.114;12.434;2022-08-20T13:51:00;4.70;;;1.52;;
33279;SDS011;20403;43.114;12.434;2022-08-20T13:53:26;3.63;;;1.40;;
33279;SDS011;20403;43.114;12.434;2022-08-20T13:55:51;6.05;;;1.75;;
33279;SDS011;20403;43.114;12.434;2022-08-20T13:58:17;7.28;;;1.35;;
33279;SDS011;20403;43.114;12.434;2022-08-20T14:00:43;5.03;;;1.00;;
33279;SDS011;20403;43.114;12.434;2022-08-20T14:03:09;10.70;;;1.77;;
33279;SDS011;20403;43.114;12.434;2022-08-20T14:05:35;4.25;;;1.50;;
33279;SDS011;20403;43.114;12.434;2022-08-20T14:08:12;5.68;;;1.25;;
33279;SDS011;20403;43.114;12.434;2022-08-20T14:10:39;5.75;;;1.42;;
33279;SDS011;20403;43.114;12.434;2022-08-20T14:13:06;2.95;;;1.10;;
33279;SDS011;20403;43.114;12.434;2022-08-20T14:15:32;4.05;;;1.35;;
33279;SDS011;20403;43.114;12.434;2022-08-20T14:17:58;5.07;;;1.40;;
33279;SDS011;20403;43.114;12.434;2022-08-20T14:20:25;5.13;;;1.40;;
33279;SDS011;20403;43.114;12.434;2022-08-20T14:22:53;3.92;;;1.25;;
33279;SDS011;20403;43.114;12.434;2022-08-20T14:25:19;6.63;;;1.83;;
33279;SDS011;20403;43.114;12.434;2022-08-20T14:27:46;3.13;;;1.20;;
33279;SDS011;20403;43.114;12.434;2022-08-20T14:30:15;2.63;;;1.15;;
33279;SDS011;20403;43.114;12.434;2022-08-20T14:32:43;4.00;;;1.17;;